This is the latest recevied weather packets stored in our database for station/object KY0TEQ-13. If no packets are shown the sender has not sent any weather packets the latest 10 day(s).
| Time | Temp. | Humidity | Pressure | Rain* | Wind** | Luminosity | Snow |
|---|---|---|---|---|---|---|---|
| 1788327099 | 13.33° C | 52% | 1309.9 hPa | 0 mm | - | 0 W/m² | - |
| 1788326793 | 12.78° C | 55% | 1309.7 hPa | 0 mm | - | 0 W/m² | - |
| 1788326489 | 13.33° C | 54% | 1309.7 hPa | 0 mm | - | 0 W/m² | - |
| 1788326188 | 13.33° C | 52% | 1309.7 hPa | 0 mm | - | 0 W/m² | - |
| 1788325889 | 12.78° C | 55% | 1309.6 hPa | 0 mm | - | 0 W/m² | - |
| 1788325581 | 13.89° C | 53% | 1309.6 hPa | 0 mm | - | 0 W/m² | - |
| 1788325276 | 14.44° C | 50% | 1309.6 hPa | 0 mm | - | 0 W/m² | - |
| 1788324972 | 15° C | 49% | 1309.5 hPa | 0 mm | - | 0 W/m² | - |
| 1788324668 | 15.56° C | 46% | 1309.6 hPa | 0 mm | - | 0 W/m² | - |
| 1788324362 | 15.56° C | 45% | 1309.5 hPa | 0 mm | - | 0 W/m² | - |
| 1788324058 | 16.11° C | 45% | 1309.7 hPa | 0 mm | - | 0 W/m² | - |
| 1788323754 | 15° C | 46% | 1309.5 hPa | 0 mm | - | 0 W/m² | - |
| 1788323449 | 15.56° C | 47% | 1309.5 hPa | 0 mm | - | 0 W/m² | - |
| 1788323148 | 15.56° C | 46% | 1309.4 hPa | 0 mm | - | 0 W/m² | - |
| 1788322844 | 16.11° C | 44% | 1309.3 hPa | 0 mm | - | 0 W/m² | - |
| 1788322543 | 16.11° C | 44% | 1309.1 hPa | 0 mm | - | 0 W/m² | - |
| 1788322238 | 16.67° C | 44% | 1309.5 hPa | 0 mm | - | 0 W/m² | - |
| 1788321937 | 16.67° C | 43% | 1309.4 hPa | 0 mm | - | 0 W/m² | - |
| 1788321632 | 16.11° C | 44% | 1309.3 hPa | 0 mm | - | 0 W/m² | - |
| 1788321326 | 16.11° C | 45% | 1309.3 hPa | 0 mm | - | 0 W/m² | - |
| 1788321021 | 16.67° C | 42% | 1309.1 hPa | 0 mm | - | 0 W/m² | - |
| 1788320714 | 16.11° C | 44% | 1309.3 hPa | 0 mm | - | 0 W/m² | - |
| 1788320414 | 16.67° C | 43% | 1308.9 hPa | 0 mm | - | 0 W/m² | - |
| 1788320114 | 16.11° C | 42% | 1309.1 hPa | 0 mm | - | 0 W/m² | - |
| 1788319814 | 15.56° C | 46% | 1308.6 hPa | 0 mm | - | 0 W/m² | - |
* Rain latest hour (hover to see other rain measurements)
** Current wind speed in m/s (hover to see current wind gust speed)